KBHB

Hancock County-Bar Harbor Airport

Bar Harbor, Maine, USA
KBHB 230520Z 2306/2406 32005KT P6SM SCT250 FM231000 27003KT P6SM BKN070 FM232000 23012G21KT P6SM OVC045 FM232100 23011KT P6SM VCSH OVC035 FM240300 24013G21KT 1SM -RA BR OVC018
Issued Valid From Valid To
Jan-23 @ 05:20 UTC
(2 hours ago)
Jan-23 @ 06:00 UTC
(2 hours ago)
Jan-24 @ 06:00 UTC
(in 22 hours)
Jan-23 @ 06:00 to Jan-23 @ 10:00
KBHB 230520Z 2306/2406 32005KT P6SM SCT250
Wind Visibility Clouds
320° at 5 knots Greater than 6 miles
  • Scattered at 25,000' AGL
From Jan-23 @ 10:00 to Jan-23 @ 20:00
FM231000 27003KT P6SM BKN070
Wind Visibility Clouds
270° at 3 knots Greater than 6 miles
  • Broken at 7,000' AGL
From Jan-23 @ 20:00 to Jan-23 @ 21:00
FM232000 23012G21KT P6SM OVC045
Wind Visibility Clouds
230° at 12 knots
 Gusting to 21 knots
Greater than 6 miles
  • Overcast at 4,500' AGL
From Jan-23 @ 21:00 to Jan-24 @ 03:00
FM232100 23011KT P6SM VCSH OVC035
Wind Visibility Clouds
230° at 11 knots Greater than 6 miles
  • Overcast at 3,500' AGL
From Jan-24 @ 03:00 to Jan-24 @ 06:00
FM240300 24013G21KT 1SM -RA BR OVC018
Wind Visibility Clouds Conditions
240° at 13 knots
 Gusting to 21 knots
1 miles
  • Overcast at 1,800' AGL
  • Light Rain
  • Mist
KBHB 230520Z 2306/2406 32005KT P6SM SCT250 FM231000 27003KT P6SM BKN070 FM232000 23012G21KT P6SM OVC045 FM232100 23011KT P6SM VCSH OVC035 FM240300 24013G21KT 1SM -RA BR OVC018
Issued Jan-23 @ 05:20 UTC
(2 hours ago)
Valid From Jan-23 @ 06:00 UTC
(2 hours ago)
Valid To Jan-24 @ 06:00 UTC
(in 22 hours)
Jan-23 @ 06:00 - Jan-23 @ 10:00
Wind Visibility
320° at 5 knots Greater than 6 miles
Clouds
  • Scattered at 25,000' AGL
From Jan-23 @ 10:00 - Jan-23 @ 20:00
Wind Visibility
270° at 3 knots Greater than 6 miles
Clouds
  • Broken at 7,000' AGL
From Jan-23 @ 20:00 - Jan-23 @ 21:00
Wind Visibility
230° at 12 knots
 Gusting to 21 knots
Greater than 6 miles
Clouds
  • Overcast at 4,500' AGL
From Jan-23 @ 21:00 - Jan-24 @ 03:00
Wind Visibility
230° at 11 knots Greater than 6 miles
Clouds
  • Overcast at 3,500' AGL
From Jan-24 @ 03:00 - Jan-24 @ 06:00
Wind Visibility
240° at 13 knots
 Gusting to 21 knots
1 miles
Clouds
  • Overcast at 1,800' AGL
Conditions
  • Light Rain
  • Mist